sensor_id;sensor_type;location;lat;lon;timestamp;temperature;humidity
18450;DHT22;9354;50.194;7.690;2023-02-28T00:01:12;0.80;99.90
18450;DHT22;9354;50.194;7.690;2023-02-28T00:03:41;0.70;99.90
18450;DHT22;9354;50.194;7.690;2023-02-28T00:06:09;0.70;99.90
18450;DHT22;9354;50.194;7.690;2023-02-28T00:08:37;0.60;99.90
18450;DHT22;9354;50.194;7.690;2023-02-28T00:11:08;0.50;99.90
18450;DHT22;9354;50.194;7.690;2023-02-28T00:13:38;0.40;99.90
18450;DHT22;9354;50.194;7.690;2023-02-28T00:16:07;0.30;99.90
18450;DHT22;9354;50.194;7.690;2023-02-28T00:18:35;0.30;99.90
18450;DHT22;9354;50.194;7.690;2023-02-28T00:21:05;0.40;99.90
18450;DHT22;9354;50.194;7.690;2023-02-28T00:23:33;0.30;99.90
18450;DHT22;9354;50.194;7.690;2023-02-28T00:26:02;0.30;99.90
18450;DHT22;9354;50.194;7.690;2023-02-28T00:28:30;0.20;99.90
18450;DHT22;9354;50.194;7.690;2023-02-28T00:30:58;0.10;99.90
18450;DHT22;9354;50.194;7.690;2023-02-28T00:33:26;0.10;99.90
18450;DHT22;9354;50.194;7.690;2023-02-28T00:36:04;0.10;99.90
18450;DHT22;9354;50.194;7.690;2023-02-28T00:38:32;0.00;99.90
18450;DHT22;9354;50.194;7.690;2023-02-28T00:41:00;0.00;99.90
18450;DHT22;9354;50.194;7.690;2023-02-28T00:43:32;0.00;99.90
18450;DHT22;9354;50.194;7.690;2023-02-28T00:46:00;-0.10;99.90
18450;DHT22;9354;50.194;7.690;2023-02-28T00:48:28;-0.10;99.90
18450;DHT22;9354;50.194;7.690;2023-02-28T00:50:56;-0.10;99.90
18450;DHT22;9354;50.194;7.690;2023-02-28T00:53:25;-0.10;99.90
18450;DHT22;9354;50.194;7.690;2023-02-28T00:55:53;0.00;99.90
18450;DHT22;9354;50.194;7.690;2023-02-28T00:58:21;-0.10;99.90
18450;DHT22;9354;50.194;7.690;2023-02-28T01:00:50;-0.10;99.90
18450;DHT22;9354;50.194;7.690;2023-02-28T01:03:20;-0.10;99.90
18450;DHT22;9354;50.194;7.690;2023-02-28T01:05:48;-0.20;99.90
18450;DHT22;9354;50.194;7.690;2023-02-28T01:08:16;-0.20;99.90
18450;DHT22;9354;50.194;7.690;2023-02-28T01:10:45;-0.20;99.90
18450;DHT22;9354;50.194;7.690;2023-02-28T01:13:14;-0.30;99.90
18450;DHT22;9354;50.194;7.690;2023-02-28T01:15:45;-0.30;99.90
18450;DHT22;9354;50.194;7.690;2023-02-28T01:18:13;-0.40;99.90
18450;DHT22;9354;50.194;7.690;2023-02-28T01:20:41;-0.40;99.90
18450;DHT22;9354;50.194;7.690;2023-02-28T01:23:10;-0.30;99.90
18450;DHT22;9354;50.194;7.690;2023-02-28T01:25:38;-0.30;99.90
18450;DHT22;9354;50.194;7.690;2023-02-28T01:28:07;-0.40;99.90
18450;DHT22;9354;50.194;7.690;2023-02-28T01:30:35;-0.40;99.90
18450;DHT22;9354;50.194;7.690;2023-02-28T01:33:03;-0.40;99.90
18450;DHT22;9354;50.194;7.690;2023-02-28T01:35:32;-0.40;99.90
18450;DHT22;9354;50.194;7.690;2023-02-28T01:38:00;-0.40;99.90
18450;DHT22;9354;50.194;7.690;2023-02-28T01:40:29;-0.40;99.90
18450;DHT22;9354;50.194;7.690;2023-02-28T01:42:57;-0.40;99.90
18450;DHT22;9354;50.194;7.690;2023-02-28T01:45:28;-0.40;99.90
18450;DHT22;9354;50.194;7.690;2023-02-28T01:47:59;-0.50;99.90
18450;DHT22;9354;50.194;7.690;2023-02-28T01:50:31;-0.50;99.90
18450;DHT22;9354;50.194;7.690;2023-02-28T01:53:03;-0.60;99.90
18450;DHT22;9354;50.194;7.690;2023-02-28T01:55:32;-0.60;99.90
18450;DHT22;9354;50.194;7.690;2023-02-28T01:58:02;-0.60;99.90
18450;DHT22;9354;50.194;7.690;2023-02-28T02:00:31;-0.70;99.90
18450;DHT22;9354;50.194;7.690;2023-02-28T02:03:01;-0.60;99.90
18450;DHT22;9354;50.194;7.690;2023-02-28T02:05:32;-0.70;99.90
18450;DHT22;9354;50.194;7.690;2023-02-28T02:08:03;-0.70;99.90
18450;DHT22;9354;50.194;7.690;2023-02-28T02:10:34;-0.60;99.90
18450;DHT22;9354;50.194;7.690;2023-02-28T02:13:25;-0.60;99.90
18450;DHT22;9354;50.194;7.690;2023-02-28T02:16:07;-0.60;99.90
18450;DHT22;9354;50.194;7.690;2023-02-28T02:18:42;-0.60;99.90
18450;DHT22;9354;50.194;7.690;2023-02-28T02:21:35;-0.60;99.90
18450;DHT22;9354;50.194;7.690;2023-02-28T02:24:33;-0.70;99.90
18450;DHT22;9354;50.194;7.690;2023-02-28T02:27:20;-0.70;99.90
18450;DHT22;9354;50.194;7.690;2023-02-28T02:30:14;-0.80;99.90
18450;DHT22;9354;50.194;7.690;2023-02-28T02:33:10;-0.80;99.90
18450;DHT22;9354;50.194;7.690;2023-02-28T02:35:47;-0.90;99.90
18450;DHT22;9354;50.194;7.690;2023-02-28T02:38:24;-0.90;99.90
18450;DHT22;9354;50.194;7.690;2023-02-28T02:41:01;-0.90;99.90
18450;DHT22;9354;50.194;7.690;2023-02-28T02:43:35;-0.90;99.90
18450;DHT22;9354;50.194;7.690;2023-02-28T02:46:08;-1.00;99.90
18450;DHT22;9354;50.194;7.690;2023-02-28T02:48:39;-1.00;99.90
18450;DHT22;9354;50.194;7.690;2023-02-28T02:51:14;-1.00;99.90
18450;DHT22;9354;50.194;7.690;2023-02-28T02:53:46;-1.10;99.90
18450;DHT22;9354;50.194;7.690;2023-02-28T02:56:18;-1.10;99.90
18450;DHT22;9354;50.194;7.690;2023-02-28T02:58:49;-1.00;99.90
18450;DHT22;9354;50.194;7.690;2023-02-28T03:01:20;-1.00;99.90
18450;DHT22;9354;50.194;7.690;2023-02-28T03:03:55;-1.00;99.90
18450;DHT22;9354;50.194;7.690;2023-02-28T03:06:26;-1.00;99.90
18450;DHT22;9354;50.194;7.690;2023-02-28T03:08:54;-1.00;99.90
18450;DHT22;9354;50.194;7.690;2023-02-28T03:11:22;-1.10;99.90
18450;DHT22;9354;50.194;7.690;2023-02-28T03:14:14;-1.10;99.90
18450;DHT22;9354;50.194;7.690;2023-02-28T03:19:46;-1.20;99.90
18450;DHT22;9354;50.194;7.690;2023-02-28T03:22:24;-1.30;99.90
18450;DHT22;9354;50.194;7.690;2023-02-28T03:25:04;-1.30;99.90
18450;DHT22;9354;50.194;7.690;2023-02-28T03:27:39;-1.30;99.90
18450;DHT22;9354;50.194;7.690;2023-02-28T03:30:14;-1.30;99.90
18450;DHT22;9354;50.194;7.690;2023-02-28T03:32:50;-1.30;99.90
18450;DHT22;9354;50.194;7.690;2023-02-28T03:35:21;-1.40;99.90
18450;DHT22;9354;50.194;7.690;2023-02-28T03:37:54;-1.30;99.90
18450;DHT22;9354;50.194;7.690;2023-02-28T03:40:27;-1.30;99.90
18450;DHT22;9354;50.194;7.690;2023-02-28T03:43:03;-1.30;99.90
18450;DHT22;9354;50.194;7.690;2023-02-28T03:45:35;-1.40;99.90
18450;DHT22;9354;50.194;7.690;2023-02-28T03:48:07;-1.40;99.90
18450;DHT22;9354;50.194;7.690;2023-02-28T03:50:39;-1.40;99.90
18450;DHT22;9354;50.194;7.690;2023-02-28T03:53:11;-1.40;99.90
18450;DHT22;9354;50.194;7.690;2023-02-28T03:55:43;-1.40;99.90
18450;DHT22;9354;50.194;7.690;2023-02-28T03:58:17;-1.50;99.90
18450;DHT22;9354;50.194;7.690;2023-02-28T04:00:50;-1.50;99.90
18450;DHT22;9354;50.194;7.690;2023-02-28T04:03:20;-1.40;99.90
18450;DHT22;9354;50.194;7.690;2023-02-28T04:05:50;-1.40;99.90
18450;DHT22;9354;50.194;7.690;2023-02-28T04:08:21;-1.40;99.90
18450;DHT22;9354;50.194;7.690;2023-02-28T04:10:53;-1.30;99.90
18450;DHT22;9354;50.194;7.690;2023-02-28T04:13:23;-1.40;99.90
18450;DHT22;9354;50.194;7.690;2023-02-28T04:15:51;-1.40;99.90
18450;DHT22;9354;50.194;7.690;2023-02-28T04:18:18;-1.40;99.90
18450;DHT22;9354;50.194;7.690;2023-02-28T04:20:47;-1.40;99.90
18450;DHT22;9354;50.194;7.690;2023-02-28T04:23:15;-1.40;99.90
18450;DHT22;9354;50.194;7.690;2023-02-28T04:25:44;-1.40;99.90
18450;DHT22;9354;50.194;7.690;2023-02-28T04:28:12;-1.40;99.90
18450;DHT22;9354;50.194;7.690;2023-02-28T04:30:40;-1.50;99.90
18450;DHT22;9354;50.194;7.690;2023-02-28T04:33:08;-1.40;99.90
18450;DHT22;9354;50.194;7.690;2023-02-28T04:35:36;-1.40;99.90
18450;DHT22;9354;50.194;7.690;2023-02-28T04:38:03;-1.50;99.90
18450;DHT22;9354;50.194;7.690;2023-02-28T04:40:32;-1.40;99.90
18450;DHT22;9354;50.194;7.690;2023-02-28T04:43:01;-1.30;99.90
18450;DHT22;9354;50.194;7.690;2023-02-28T04:45:31;-1.20;99.90
18450;DHT22;9354;50.194;7.690;2023-02-28T04:48:00;-1.10;99.90
18450;DHT22;9354;50.194;7.690;2023-02-28T04:50:27;-1.20;99.90
18450;DHT22;9354;50.194;7.690;2023-02-28T04:52:56;-1.30;99.90
18450;DHT22;9354;50.194;7.690;2023-02-28T04:55:24;-1.40;99.90
18450;DHT22;9354;50.194;7.690;2023-02-28T04:57:52;-1.50;99.90
18450;DHT22;9354;50.194;7.690;2023-02-28T05:00:24;-1.50;99.90
18450;DHT22;9354;50.194;7.690;2023-02-28T05:02:52;-1.60;99.90
18450;DHT22;9354;50.194;7.690;2023-02-28T05:05:20;-1.60;99.90
18450;DHT22;9354;50.194;7.690;2023-02-28T05:07:48;-1.70;99.90
18450;DHT22;9354;50.194;7.690;2023-02-28T05:10:17;-1.70;99.90
18450;DHT22;9354;50.194;7.690;2023-02-28T05:12:45;-1.80;99.90
18450;DHT22;9354;50.194;7.690;2023-02-28T05:15:15;-1.80;99.90
18450;DHT22;9354;50.194;7.690;2023-02-28T05:17:45;-1.90;99.90
18450;DHT22;9354;50.194;7.690;2023-02-28T05:20:13;-1.90;99.90
18450;DHT22;9354;50.194;7.690;2023-02-28T05:22:42;-1.90;99.90
18450;DHT22;9354;50.194;7.690;2023-02-28T05:25:12;-1.90;99.90
18450;DHT22;9354;50.194;7.690;2023-02-28T05:27:41;-2.00;99.90
18450;DHT22;9354;50.194;7.690;2023-02-28T05:30:10;-1.90;99.90
18450;DHT22;9354;50.194;7.690;2023-02-28T05:32:39;-1.90;99.90
18450;DHT22;9354;50.194;7.690;2023-02-28T05:35:11;-2.00;99.90
18450;DHT22;9354;50.194;7.690;2023-02-28T05:37:39;-2.00;99.90
18450;DHT22;9354;50.194;7.690;2023-02-28T05:40:08;-2.00;99.90
18450;DHT22;9354;50.194;7.690;2023-02-28T05:42:38;-2.00;99.90
18450;DHT22;9354;50.194;7.690;2023-02-28T05:45:06;-2.00;99.90
18450;DHT22;9354;50.194;7.690;2023-02-28T05:47:34;-2.00;99.90
18450;DHT22;9354;50.194;7.690;2023-02-28T05:50:03;-2.10;99.90
18450;DHT22;9354;50.194;7.690;2023-02-28T05:52:32;-2.10;99.90
18450;DHT22;9354;50.194;7.690;2023-02-28T05:55:00;-2.10;99.90
18450;DHT22;9354;50.194;7.690;2023-02-28T05:57:29;-2.10;99.90
18450;DHT22;9354;50.194;7.690;2023-02-28T05:59:57;-2.10;99.90
18450;DHT22;9354;50.194;7.690;2023-02-28T06:02:25;-2.10;99.90
18450;DHT22;9354;50.194;7.690;2023-02-28T06:04:52;-2.10;99.90
18450;DHT22;9354;50.194;7.690;2023-02-28T06:07:20;-2.10;99.90
18450;DHT22;9354;50.194;7.690;2023-02-28T06:09:50;-2.10;99.90
18450;DHT22;9354;50.194;7.690;2023-02-28T06:12:17;-2.10;99.90
18450;DHT22;9354;50.194;7.690;2023-02-28T06:14:45;-2.10;99.90
18450;DHT22;9354;50.194;7.690;2023-02-28T06:17:13;-2.10;99.90
18450;DHT22;9354;50.194;7.690;2023-02-28T06:19:41;-2.10;99.90
18450;DHT22;9354;50.194;7.690;2023-02-28T06:22:08;-2.10;99.90
18450;DHT22;9354;50.194;7.690;2023-02-28T06:24:36;-2.10;99.90
18450;DHT22;9354;50.194;7.690;2023-02-28T06:27:06;-2.00;99.90
18450;DHT22;9354;50.194;7.690;2023-02-28T06:29:35;-2.00;99.90
18450;DHT22;9354;50.194;7.690;2023-02-28T06:32:06;-1.90;99.90
18450;DHT22;9354;50.194;7.690;2023-02-28T06:34:34;-1.80;99.90
18450;DHT22;9354;50.194;7.690;2023-02-28T06:37:02;-1.80;99.90
18450;DHT22;9354;50.194;7.690;2023-02-28T06:39:30;-1.70;99.90
18450;DHT22;9354;50.194;7.690;2023-02-28T06:41:57;-1.70;99.90
18450;DHT22;9354;50.194;7.690;2023-02-28T06:44:27;-1.70;99.90
18450;DHT22;9354;50.194;7.690;2023-02-28T06:47:01;-1.70;99.90
18450;DHT22;9354;50.194;7.690;2023-02-28T06:49:30;-1.60;99.90
18450;DHT22;9354;50.194;7.690;2023-02-28T06:51:58;-1.60;99.90
18450;DHT22;9354;50.194;7.690;2023-02-28T06:54:26;-1.60;99.90
18450;DHT22;9354;50.194;7.690;2023-02-28T06:56:54;-1.50;99.90
18450;DHT22;9354;50.194;7.690;2023-02-28T06:59:22;-1.50;99.90
18450;DHT22;9354;50.194;7.690;2023-02-28T07:01:51;-1.40;99.90
18450;DHT22;9354;50.194;7.690;2023-02-28T07:04:19;-1.40;99.90
18450;DHT22;9354;50.194;7.690;2023-02-28T07:06:49;-1.40;99.90
18450;DHT22;9354;50.194;7.690;2023-02-28T07:09:16;-1.40;99.90
18450;DHT22;9354;50.194;7.690;2023-02-28T07:11:45;-1.30;99.90
18450;DHT22;9354;50.194;7.690;2023-02-28T07:14:13;-1.30;99.90
18450;DHT22;9354;50.194;7.690;2023-02-28T07:16:41;-1.20;99.90
18450;DHT22;9354;50.194;7.690;2023-02-28T07:19:11;-1.10;99.90
18450;DHT22;9354;50.194;7.690;2023-02-28T07:21:39;-0.90;99.90
18450;DHT22;9354;50.194;7.690;2023-02-28T07:24:07;-0.90;99.90
18450;DHT22;9354;50.194;7.690;2023-02-28T07:26:35;-0.70;99.90
18450;DHT22;9354;50.194;7.690;2023-02-28T07:29:03;-0.60;99.90
18450;DHT22;9354;50.194;7.690;2023-02-28T07:31:31;-0.30;99.90
18450;DHT22;9354;50.194;7.690;2023-02-28T07:33:59;0.10;99.90
18450;DHT22;9354;50.194;7.690;2023-02-28T07:36:28;0.30;99.90
18450;DHT22;9354;50.194;7.690;2023-02-28T07:38:56;0.50;99.90
18450;DHT22;9354;50.194;7.690;2023-02-28T07:41:26;0.80;99.90
18450;DHT22;9354;50.194;7.690;2023-02-28T07:43:55;0.90;99.90
18450;DHT22;9354;50.194;7.690;2023-02-28T07:46:26;1.00;99.90
18450;DHT22;9354;50.194;7.690;2023-02-28T07:48:55;1.10;99.90
18450;DHT22;9354;50.194;7.690;2023-02-28T07:51:25;1.30;99.90
18450;DHT22;9354;50.194;7.690;2023-02-28T07:53:54;1.50;99.90
18450;DHT22;9354;50.194;7.690;2023-02-28T07:56:22;1.70;99.90
18450;DHT22;9354;50.194;7.690;2023-02-28T07:58:50;1.70;99.90
18450;DHT22;9354;50.194;7.690;2023-02-28T08:01:19;1.90;99.90
18450;DHT22;9354;50.194;7.690;2023-02-28T08:03:47;2.00;99.90
18450;DHT22;9354;50.194;7.690;2023-02-28T08:06:20;2.20;99.90
18450;DHT22;9354;50.194;7.690;2023-02-28T08:08:48;2.30;99.90
18450;DHT22;9354;50.194;7.690;2023-02-28T08:11:19;2.50;99.90
18450;DHT22;9354;50.194;7.690;2023-02-28T08:13:46;2.70;99.90
18450;DHT22;9354;50.194;7.690;2023-02-28T08:16:14;2.90;99.90
18450;DHT22;9354;50.194;7.690;2023-02-28T08:18:49;3.00;99.90
18450;DHT22;9354;50.194;7.690;2023-02-28T08:21:18;3.10;99.90
18450;DHT22;9354;50.194;7.690;2023-02-28T08:23:47;3.10;99.90
18450;DHT22;9354;50.194;7.690;2023-02-28T08:26:15;3.20;99.90
18450;DHT22;9354;50.194;7.690;2023-02-28T08:28:44;3.10;99.90
18450;DHT22;9354;50.194;7.690;2023-02-28T08:31:14;3.20;99.90
18450;DHT22;9354;50.194;7.690;2023-02-28T08:33:43;3.20;99.90
18450;DHT22;9354;50.194;7.690;2023-02-28T08:36:12;3.20;99.90
18450;DHT22;9354;50.194;7.690;2023-02-28T08:38:39;3.30;99.90
18450;DHT22;9354;50.194;7.690;2023-02-28T08:41:10;3.40;99.90
18450;DHT22;9354;50.194;7.690;2023-02-28T08:43:39;3.50;99.90
18450;DHT22;9354;50.194;7.690;2023-02-28T08:46:11;3.60;99.90
18450;DHT22;9354;50.194;7.690;2023-02-28T08:48:39;3.60;99.90
18450;DHT22;9354;50.194;7.690;2023-02-28T08:51:10;3.70;99.90
18450;DHT22;9354;50.194;7.690;2023-02-28T08:53:39;3.60;99.90
18450;DHT22;9354;50.194;7.690;2023-02-28T08:56:08;3.60;99.90
18450;DHT22;9354;50.194;7.690;2023-02-28T08:58:37;3.70;99.90
18450;DHT22;9354;50.194;7.690;2023-02-28T09:01:11;3.70;99.90
18450;DHT22;9354;50.194;7.690;2023-02-28T09:03:40;3.70;99.90
18450;DHT22;9354;50.194;7.690;2023-02-28T09:06:09;3.70;99.90
18450;DHT22;9354;50.194;7.690;2023-02-28T09:08:38;3.80;99.90
18450;DHT22;9354;50.194;7.690;2023-02-28T09:11:07;3.80;99.90
18450;DHT22;9354;50.194;7.690;2023-02-28T09:13:35;3.90;99.90
18450;DHT22;9354;50.194;7.690;2023-02-28T09:16:06;3.90;99.90
18450;DHT22;9354;50.194;7.690;2023-02-28T09:18:37;4.10;99.90
18450;DHT22;9354;50.194;7.690;2023-02-28T09:21:06;4.20;99.90
18450;DHT22;9354;50.194;7.690;2023-02-28T09:23:34;4.30;99.90
18450;DHT22;9354;50.194;7.690;2023-02-28T09:26:04;4.50;99.90
18450;DHT22;9354;50.194;7.690;2023-02-28T09:28:32;4.60;99.90
18450;DHT22;9354;50.194;7.690;2023-02-28T09:31:00;4.70;99.90
18450;DHT22;9354;50.194;7.690;2023-02-28T09:33:30;4.80;99.90
18450;DHT22;9354;50.194;7.690;2023-02-28T09:36:03;4.90;99.90
18450;DHT22;9354;50.194;7.690;2023-02-28T09:38:31;4.70;99.90
18450;DHT22;9354;50.194;7.690;2023-02-28T09:41:01;4.70;99.90
18450;DHT22;9354;50.194;7.690;2023-02-28T09:43:34;4.70;99.90
18450;DHT22;9354;50.194;7.690;2023-02-28T09:46:11;4.60;99.90
18450;DHT22;9354;50.194;7.690;2023-02-28T09:48:42;4.70;99.90
18450;DHT22;9354;50.194;7.690;2023-02-28T09:51:23;4.70;99.90
18450;DHT22;9354;50.194;7.690;2023-02-28T09:53:54;4.60;99.90
18450;DHT22;9354;50.194;7.690;2023-02-28T09:56:24;4.40;99.90
18450;DHT22;9354;50.194;7.690;2023-02-28T09:58:57;4.10;99.90
18450;DHT22;9354;50.194;7.690;2023-02-28T10:01:34;3.80;99.90
18450;DHT22;9354;50.194;7.690;2023-02-28T10:04:09;3.60;99.90
18450;DHT22;9354;50.194;7.690;2023-02-28T10:06:45;3.50;99.90
18450;DHT22;9354;50.194;7.690;2023-02-28T10:09:17;3.60;99.90
18450;DHT22;9354;50.194;7.690;2023-02-28T10:11:47;3.60;99.90
18450;DHT22;9354;50.194;7.690;2023-02-28T10:14:18;3.40;99.90
18450;DHT22;9354;50.194;7.690;2023-02-28T10:16:48;3.20;99.90
18450;DHT22;9354;50.194;7.690;2023-02-28T10:19:25;3.20;99.90
18450;DHT22;9354;50.194;7.690;2023-02-28T10:22:02;3.10;99.90
18450;DHT22;9354;50.194;7.690;2023-02-28T10:24:34;3.10;99.90
18450;DHT22;9354;50.194;7.690;2023-02-28T10:27:14;3.00;99.90
18450;DHT22;9354;50.194;7.690;2023-02-28T10:29:44;3.00;99.90
18450;DHT22;9354;50.194;7.690;2023-02-28T10:32:15;3.00;99.90
18450;DHT22;9354;50.194;7.690;2023-02-28T10:34:44;3.00;99.90
18450;DHT22;9354;50.194;7.690;2023-02-28T10:37:13;3.10;99.90
18450;DHT22;9354;50.194;7.690;2023-02-28T10:39:43;3.10;99.90
18450;DHT22;9354;50.194;7.690;2023-02-28T10:42:22;3.20;99.90
18450;DHT22;9354;50.194;7.690;2023-02-28T10:45:10;3.20;99.90
18450;DHT22;9354;50.194;7.690;2023-02-28T10:47:49;3.10;99.90
18450;DHT22;9354;50.194;7.690;2023-02-28T10:50:39;3.00;99.90
18450;DHT22;9354;50.194;7.690;2023-02-28T10:53:35;3.10;99.90
18450;DHT22;9354;50.194;7.690;2023-02-28T10:56:05;3.20;99.90
18450;DHT22;9354;50.194;7.690;2023-02-28T10:58:47;3.30;99.90
18450;DHT22;9354;50.194;7.690;2023-02-28T11:01:18;3.30;99.90
18450;DHT22;9354;50.194;7.690;2023-02-28T11:03:46;3.30;99.90
18450;DHT22;9354;50.194;7.690;2023-02-28T11:06:20;3.30;99.90
18450;DHT22;9354;50.194;7.690;2023-02-28T11:08:52;3.30;99.90
18450;DHT22;9354;50.194;7.690;2023-02-28T11:11:24;3.40;99.90
18450;DHT22;9354;50.194;7.690;2023-02-28T11:13:54;3.70;99.90
18450;DHT22;9354;50.194;7.690;2023-02-28T11:16:32;4.10;99.90
18450;DHT22;9354;50.194;7.690;2023-02-28T11:19:02;4.50;99.90
18450;DHT22;9354;50.194;7.690;2023-02-28T11:21:34;4.70;99.90
18450;DHT22;9354;50.194;7.690;2023-02-28T11:24:17;5.00;99.90
18450;DHT22;9354;50.194;7.690;2023-02-28T11:26:48;5.30;99.90
18450;DHT22;9354;50.194;7.690;2023-02-28T11:29:19;5.40;99.90
18450;DHT22;9354;50.194;7.690;2023-02-28T11:32:06;5.40;99.90
18450;DHT22;9354;50.194;7.690;2023-02-28T11:34:38;5.50;99.90
18450;DHT22;9354;50.194;7.690;2023-02-28T11:37:12;5.50;99.90
18450;DHT22;9354;50.194;7.690;2023-02-28T11:39:43;5.70;99.90
18450;DHT22;9354;50.194;7.690;2023-02-28T11:42:36;5.80;99.90
18450;DHT22;9354;50.194;7.690;2023-02-28T11:45:19;5.80;99.90
18450;DHT22;9354;50.194;7.690;2023-02-28T11:47:54;5.60;99.90
18450;DHT22;9354;50.194;7.690;2023-02-28T11:50:45;5.40;99.90
18450;DHT22;9354;50.194;7.690;2023-02-28T11:53:22;5.20;99.90
18450;DHT22;9354;50.194;7.690;2023-02-28T11:56:02;4.90;99.90
18450;DHT22;9354;50.194;7.690;2023-02-28T11:58:40;4.80;99.90
18450;DHT22;9354;50.194;7.690;2023-02-28T12:01:28;4.60;99.90
18450;DHT22;9354;50.194;7.690;2023-02-28T12:04:11;4.70;99.90
18450;DHT22;9354;50.194;7.690;2023-02-28T12:06:47;5.00;99.90
18450;DHT22;9354;50.194;7.690;2023-02-28T12:09:29;5.30;99.90
18450;DHT22;9354;50.194;7.690;2023-02-28T12:12:08;5.70;99.90
18450;DHT22;9354;50.194;7.690;2023-02-28T12:14:54;5.90;99.90
18450;DHT22;9354;50.194;7.690;2023-02-28T12:17:35;6.10;99.90
18450;DHT22;9354;50.194;7.690;2023-02-28T12:20:14;6.40;99.90
18450;DHT22;9354;50.194;7.690;2023-02-28T12:22:52;6.60;99.90
18450;DHT22;9354;50.194;7.690;2023-02-28T12:25:49;6.80;99.90
18450;DHT22;9354;50.194;7.690;2023-02-28T12:28:23;7.00;99.90
18450;DHT22;9354;50.194;7.690;2023-02-28T12:30:56;7.10;99.90
18450;DHT22;9354;50.194;7.690;2023-02-28T12:33:27;7.10;99.90
18450;DHT22;9354;50.194;7.690;2023-02-28T12:35:58;7.10;99.90
18450;DHT22;9354;50.194;7.690;2023-02-28T12:38:28;7.30;99.90
18450;DHT22;9354;50.194;7.690;2023-02-28T12:41:00;7.40;99.90
18450;DHT22;9354;50.194;7.690;2023-02-28T12:43:34;7.40;99.90
18450;DHT22;9354;50.194;7.690;2023-02-28T12:46:06;7.30;99.90
18450;DHT22;9354;50.194;7.690;2023-02-28T12:48:40;7.40;99.90
18450;DHT22;9354;50.194;7.690;2023-02-28T12:51:10;7.40;99.90
18450;DHT22;9354;50.194;7.690;2023-02-28T12:53:54;7.40;99.90
18450;DHT22;9354;50.194;7.690;2023-02-28T12:56:33;7.40;99.90
18450;DHT22;9354;50.194;7.690;2023-02-28T12:59:11;7.40;99.90
18450;DHT22;9354;50.194;7.690;2023-02-28T13:05:07;7.50;99.90
18450;DHT22;9354;50.194;7.690;2023-02-28T13:10:51;7.50;99.90
18450;DHT22;9354;50.194;7.690;2023-02-28T13:13:22;7.50;99.90
18450;DHT22;9354;50.194;7.690;2023-02-28T13:16:01;7.40;99.90
18450;DHT22;9354;50.194;7.690;2023-02-28T13:18:32;7.30;99.90
18450;DHT22;9354;50.194;7.690;2023-02-28T13:21:03;7.30;99.90
18450;DHT22;9354;50.194;7.690;2023-02-28T13:23:39;7.10;99.90
18450;DHT22;9354;50.194;7.690;2023-02-28T13:26:07;7.10;99.90
18450;DHT22;9354;50.194;7.690;2023-02-28T13:28:58;7.20;99.90
18450;DHT22;9354;50.194;7.690;2023-02-28T13:31:27;7.30;99.90
18450;DHT22;9354;50.194;7.690;2023-02-28T13:34:06;7.30;99.90
18450;DHT22;9354;50.194;7.690;2023-02-28T13:36:39;7.30;99.90
18450;DHT22;9354;50.194;7.690;2023-02-28T13:39:45;7.40;99.90
18450;DHT22;9354;50.194;7.690;2023-02-28T13:42:35;7.50;99.90
18450;DHT22;9354;50.194;7.690;2023-02-28T13:45:24;7.60;99.90
18450;DHT22;9354;50.194;7.690;2023-02-28T13:47:56;7.50;99.90
18450;DHT22;9354;50.194;7.690;2023-02-28T13:50:32;7.40;99.90
18450;DHT22;9354;50.194;7.690;2023-02-28T13:56:07;7.60;99.90
18450;DHT22;9354;50.194;7.690;2023-02-28T13:58:46;7.60;99.90
18450;DHT22;9354;50.194;7.690;2023-02-28T14:01:41;7.60;99.90
18450;DHT22;9354;50.194;7.690;2023-02-28T14:07:24;7.30;99.90
18450;DHT22;9354;50.194;7.690;2023-02-28T14:09:59;7.30;99.90
18450;DHT22;9354;50.194;7.690;2023-02-28T14:12:57;7.20;99.90
18450;DHT22;9354;50.194;7.690;2023-02-28T14:15:45;7.20;99.90
18450;DHT22;9354;50.194;7.690;2023-02-28T14:18:31;7.30;99.90
18450;DHT22;9354;50.194;7.690;2023-02-28T14:24:32;7.40;99.90
18450;DHT22;9354;50.194;7.690;2023-02-28T14:27:15;7.40;99.90
18450;DHT22;9354;50.194;7.690;2023-02-28T14:30:02;7.40;99.90
18450;DHT22;9354;50.194;7.690;2023-02-28T14:32:35;7.40;99.90
18450;DHT22;9354;50.194;7.690;2023-02-28T14:35:16;7.30;99.90
18450;DHT22;9354;50.194;7.690;2023-02-28T14:37:46;6.90;99.90
18450;DHT22;9354;50.194;7.690;2023-02-28T14:40:19;6.60;99.90
18450;DHT22;9354;50.194;7.690;2023-02-28T14:42:55;6.40;99.90
18450;DHT22;9354;50.194;7.690;2023-02-28T14:45:28;6.30;99.90
18450;DHT22;9354;50.194;7.690;2023-02-28T14:47:59;6.30;99.90
18450;DHT22;9354;50.194;7.690;2023-02-28T14:50:31;6.40;99.90
18450;DHT22;9354;50.194;7.690;2023-02-28T14:53:00;6.30;99.90
18450;DHT22;9354;50.194;7.690;2023-02-28T14:55:32;6.10;99.90
18450;DHT22;9354;50.194;7.690;2023-02-28T14:58:02;5.90;99.90
18450;DHT22;9354;50.194;7.690;2023-02-28T15:00:31;5.70;99.90
18450;DHT22;9354;50.194;7.690;2023-02-28T15:03:01;5.50;99.90
18450;DHT22;9354;50.194;7.690;2023-02-28T15:05:31;5.60;99.90
18450;DHT22;9354;50.194;7.690;2023-02-28T15:08:05;5.60;99.90
18450;DHT22;9354;50.194;7.690;2023-02-28T15:10:34;5.60;99.90
18450;DHT22;9354;50.194;7.690;2023-02-28T15:13:05;5.60;99.90
18450;DHT22;9354;50.194;7.690;2023-02-28T15:15:42;5.50;99.90
18450;DHT22;9354;50.194;7.690;2023-02-28T15:18:16;5.40;99.90
18450;DHT22;9354;50.194;7.690;2023-02-28T15:20:47;5.20;99.90
18450;DHT22;9354;50.194;7.690;2023-02-28T15:23:15;5.00;99.90
18450;DHT22;9354;50.194;7.690;2023-02-28T15:26:01;4.90;99.90
18450;DHT22;9354;50.194;7.690;2023-02-28T15:28:29;4.90;99.90
18450;DHT22;9354;50.194;7.690;2023-02-28T15:30:59;4.70;99.90
18450;DHT22;9354;50.194;7.690;2023-02-28T15:33:28;4.50;99.90
18450;DHT22;9354;50.194;7.690;2023-02-28T15:36:09;4.40;99.90
18450;DHT22;9354;50.194;7.690;2023-02-28T15:38:38;4.20;99.90
18450;DHT22;9354;50.194;7.690;2023-02-28T15:41:26;4.20;99.90
18450;DHT22;9354;50.194;7.690;2023-02-28T15:47:00;4.20;99.90
18450;DHT22;9354;50.194;7.690;2023-02-28T15:49:30;4.10;99.90
18450;DHT22;9354;50.194;7.690;2023-02-28T15:52:02;4.00;99.90
18450;DHT22;9354;50.194;7.690;2023-02-28T15:54:32;3.90;99.90
18450;DHT22;9354;50.194;7.690;2023-02-28T15:57:05;4.00;99.90
18450;DHT22;9354;50.194;7.690;2023-02-28T15:59:36;4.00;99.90
18450;DHT22;9354;50.194;7.690;2023-02-28T16:02:15;4.00;99.90
18450;DHT22;9354;50.194;7.690;2023-02-28T16:05:16;4.00;99.90
18450;DHT22;9354;50.194;7.690;2023-02-28T16:07:46;4.00;99.90
18450;DHT22;9354;50.194;7.690;2023-02-28T16:16:31;4.00;99.90
18450;DHT22;9354;50.194;7.690;2023-02-28T16:18:59;4.00;99.90
18450;DHT22;9354;50.194;7.690;2023-02-28T16:21:27;4.00;99.90
18450;DHT22;9354;50.194;7.690;2023-02-28T16:23:55;4.00;99.90
18450;DHT22;9354;50.194;7.690;2023-02-28T16:26:24;4.00;99.90
18450;DHT22;9354;50.194;7.690;2023-02-28T16:28:53;4.00;99.90
18450;DHT22;9354;50.194;7.690;2023-02-28T16:31:21;3.90;99.90
18450;DHT22;9354;50.194;7.690;2023-02-28T16:33:51;3.80;99.90
18450;DHT22;9354;50.194;7.690;2023-02-28T16:36:40;3.80;99.90
18450;DHT22;9354;50.194;7.690;2023-02-28T16:39:08;3.70;99.90
18450;DHT22;9354;50.194;7.690;2023-02-28T16:41:36;3.70;99.90
18450;DHT22;9354;50.194;7.690;2023-02-28T16:44:10;3.70;99.90
18450;DHT22;9354;50.194;7.690;2023-02-28T16:46:40;3.70;99.90
18450;DHT22;9354;50.194;7.690;2023-02-28T16:49:12;3.70;99.90
18450;DHT22;9354;50.194;7.690;2023-02-28T16:51:40;3.60;99.90
18450;DHT22;9354;50.194;7.690;2023-02-28T16:54:08;3.60;99.90
18450;DHT22;9354;50.194;7.690;2023-02-28T16:56:36;3.60;99.90